createdAt,value
2018-04-17T00:01:37.386Z,52.73
2018-04-17T00:04:04.998Z,48.70
2018-04-17T00:06:32.764Z,50.40
2018-04-17T00:09:00.383Z,49.00
2018-04-17T00:11:28.088Z,49.60
2018-04-17T00:13:55.707Z,49.67
2018-04-17T00:16:23.406Z,49.03
2018-04-17T00:18:51.032Z,46.07
2018-04-17T00:21:18.670Z,49.77
2018-04-17T00:23:46.397Z,48.40
2018-04-17T00:26:14.039Z,47.40
2018-04-17T00:28:41.662Z,49.70
2018-04-17T00:31:09.388Z,45.40
2018-04-17T00:33:37.046Z,46.80
2018-04-17T00:36:04.809Z,47.00
2018-04-17T00:38:32.418Z,47.20
2018-04-17T00:41:00.134Z,43.70
2018-04-17T00:43:27.743Z,48.07
2018-04-17T00:45:55.363Z,46.77
2018-04-17T00:48:23.026Z,48.03
2018-04-17T00:50:50.641Z,46.57
2018-04-17T00:53:30.707Z,46.60
2018-04-17T00:55:58.407Z,48.00
2018-04-17T00:58:26.070Z,49.90
2018-04-17T01:00:53.735Z,49.77
2018-04-17T01:03:21.386Z,45.70
2018-04-17T01:05:49.003Z,42.07
2018-04-17T01:08:16.714Z,50.17
2018-04-17T01:13:20.979Z,52.77
2018-04-17T01:15:48.591Z,44.70
2018-04-17T01:18:16.227Z,48.60
2018-04-17T01:20:43.939Z,53.60
2018-04-17T01:23:11.615Z,46.73
2018-04-17T01:25:39.243Z,50.87
2018-04-17T01:28:06.877Z,50.33
2018-04-17T01:30:34.586Z,54.27
2018-04-17T01:33:02.217Z,53.10
2018-04-17T01:35:29.826Z,48.67
2018-04-17T01:37:57.454Z,47.10
2018-04-17T01:40:25.070Z,52.37
2018-04-17T01:42:52.795Z,50.57
2018-04-17T01:45:20.461Z,53.87
2018-04-17T01:47:48.131Z,53.27
2018-04-17T01:50:15.751Z,50.87
2018-04-17T01:52:43.454Z,47.63
2018-04-17T01:55:11.066Z,48.40
2018-04-17T01:57:38.702Z,45.70
2018-04-17T02:00:06.316Z,51.60
2018-04-17T02:02:33.998Z,52.07
2018-04-17T02:05:01.626Z,49.53
2018-04-17T02:07:29.234Z,52.77
2018-04-17T02:09:56.878Z,49.63
2018-04-17T02:12:24.546Z,49.17
2018-04-17T02:14:52.178Z,48.10
2018-04-17T02:17:19.879Z,53.80
2018-04-17T02:19:47.523Z,49.90
2018-04-17T02:22:15.198Z,52.80
2018-04-17T02:24:42.835Z,48.67
2018-04-17T02:27:10.522Z,50.90
2018-04-17T02:29:38.196Z,51.77
2018-04-17T02:32:05.815Z,53.67
2018-04-17T02:34:33.519Z,54.70
2018-04-17T02:37:01.187Z,53.90
2018-04-17T02:39:28.822Z,53.50
2018-04-17T02:41:56.438Z,51.20
2018-04-17T02:44:24.163Z,52.53
2018-04-17T02:46:51.773Z,56.07
2018-04-17T02:49:19.499Z,54.93
2018-04-17T02:51:47.169Z,55.67
2018-04-17T02:54:14.818Z,53.50
2018-04-17T02:56:42.471Z,54.50
2018-04-17T02:59:10.117Z,52.77
2018-04-17T03:01:37.732Z,53.67
2018-04-17T03:04:05.366Z,53.83
2018-04-17T03:06:33.031Z,51.77
2018-04-17T03:09:00.686Z,53.17
2018-04-17T03:11:28.307Z,49.50
2018-04-17T03:13:55.942Z,53.93
2018-04-17T03:16:23.571Z,54.07
2018-04-17T03:18:51.178Z,52.70
2018-04-17T03:21:18.899Z,55.57
2018-04-17T03:23:46.566Z,54.57
2018-04-17T03:26:14.227Z,53.87
2018-04-17T03:28:41.898Z,51.40
2018-04-17T03:31:09.566Z,52.60
2018-04-17T03:33:37.200Z,52.47
2018-04-17T03:36:04.838Z,54.57
2018-04-17T03:38:32.445Z,50.17
2018-04-17T03:41:00.110Z,53.50
2018-04-17T03:43:27.725Z,53.03
2018-04-17T03:45:55.432Z,57.30
2018-04-17T03:48:23.059Z,57.60
2018-04-17T03:50:50.755Z,57.93
2018-04-17T03:53:20.043Z,54.70
2018-04-17T03:55:47.691Z,54.27
2018-04-17T03:58:15.311Z,54.10
2018-04-17T04:00:42.955Z,53.80
2018-04-17T04:03:10.598Z,55.60
2018-04-17T04:05:38.245Z,60.07
2018-04-17T04:08:05.918Z,54.10
2018-04-17T04:10:33.580Z,51.53
2018-04-17T04:13:01.198Z,55.90
2018-04-17T04:15:28.834Z,51.93
2018-04-17T04:18:08.262Z,60.90
2018-04-17T04:20:47.695Z,58.90
2018-04-17T04:26:29.355Z,56.80
2018-04-17T04:28:56.977Z,51.57
2018-04-17T04:31:24.616Z,50.60
2018-04-17T04:33:52.422Z,54.13
2018-04-17T04:36:20.253Z,57.87
2018-04-17T04:38:47.920Z,56.20
2018-04-17T04:41:15.672Z,48.33
2018-04-17T04:43:43.355Z,46.60
2018-04-17T04:46:10.977Z,52.77
2018-04-17T04:48:38.628Z,50.53
2018-04-17T04:51:06.251Z,54.30
2018-04-17T04:53:33.996Z,51.73
2018-04-17T04:56:01.827Z,56.53
2018-04-17T04:58:29.466Z,48.67
2018-04-17T05:00:57.080Z,53.40
2018-04-17T05:03:24.750Z,55.77
2018-04-17T05:05:52.365Z,55.20
2018-04-17T05:08:20.078Z,55.43
2018-04-17T05:10:48.443Z,54.80
2018-04-17T05:13:16.095Z,56.10
2018-04-17T05:15:43.713Z,48.37
2018-04-17T05:18:11.350Z,55.60
2018-04-17T05:20:38.975Z,49.13
2018-04-17T05:23:06.623Z,51.67
2018-04-17T05:25:34.466Z,55.47
2018-04-17T05:28:02.198Z,56.23
2018-04-17T05:30:29.862Z,53.90
2018-04-17T05:32:57.505Z,51.33
2018-04-17T05:35:25.180Z,50.00
2018-04-17T05:37:52.829Z,48.03
2018-04-17T05:40:20.519Z,51.90
2018-04-17T05:42:48.170Z,50.83
2018-04-17T05:45:15.795Z,49.03
2018-04-17T05:47:43.430Z,48.40
2018-04-17T05:50:11.101Z,50.00
2018-04-17T05:52:38.827Z,42.00
2018-04-17T05:55:06.441Z,44.87
2018-04-17T05:57:34.160Z,45.37
2018-04-17T06:00:01.804Z,41.30
2018-04-17T06:02:29.479Z,40.20
2018-04-17T06:04:57.132Z,38.77
2018-04-17T06:07:24.742Z,40.20
2018-04-17T06:09:52.561Z,37.10
2018-04-17T06:12:20.226Z,37.00
2018-04-17T06:14:47.988Z,29.57
2018-04-17T06:17:15.659Z,31.57
2018-04-17T06:19:43.291Z,30.07
2018-04-17T06:22:10.977Z,31.50
2018-04-17T06:24:38.651Z,26.77
2018-04-17T06:27:06.306Z,26.27
2018-04-17T06:29:33.940Z,25.87
2018-04-17T06:32:01.628Z,25.57
2018-04-17T06:34:29.267Z,26.47
2018-04-17T06:36:57.060Z,28.07
2018-04-17T06:39:24.728Z,25.33
2018-04-17T06:41:52.364Z,24.57
2018-04-17T06:44:20.564Z,26.43
2018-04-17T06:46:48.233Z,26.20
2018-04-17T06:49:15.892Z,25.30
2018-04-17T06:51:43.572Z,26.10
2018-04-17T06:54:11.206Z,24.00
2018-04-17T06:56:38.825Z,24.80
2018-04-17T06:59:06.454Z,24.33
2018-04-17T07:01:34.068Z,19.20
2018-04-17T07:04:01.730Z,20.67
2018-04-17T07:06:29.422Z,18.00
2018-04-17T07:08:57.030Z,15.20
2018-04-17T07:11:24.666Z,17.87
2018-04-17T07:13:52.315Z,15.80
2018-04-17T07:16:19.954Z,13.03
2018-04-17T07:18:47.566Z,14.97
2018-04-17T07:21:15.201Z,13.50
2018-04-17T07:23:42.906Z,14.83
2018-04-17T07:26:10.618Z,13.40
2018-04-17T07:28:38.291Z,13.70
2018-04-17T07:31:05.929Z,12.90
2018-04-17T07:33:33.538Z,12.30
2018-04-17T07:36:01.269Z,12.00
2018-04-17T07:38:28.884Z,14.10
2018-04-17T07:40:56.517Z,14.03
2018-04-17T07:43:24.122Z,15.43
2018-04-17T07:45:51.761Z,14.57
2018-04-17T07:48:31.069Z,15.23
2018-04-17T07:50:58.721Z,14.43
2018-04-17T07:53:26.379Z,12.60
2018-04-17T07:55:54.010Z,12.27
2018-04-17T07:58:21.627Z,13.10
2018-04-17T08:00:49.264Z,10.93
2018-04-17T08:03:16.873Z,11.20
2018-04-17T08:05:44.516Z,9.20
2018-04-17T08:08:12.253Z,8.40
2018-04-17T08:10:39.857Z,8.97
2018-04-17T08:13:07.583Z,8.57
2018-04-17T08:15:35.194Z,7.90
2018-04-17T08:18:02.830Z,8.70
2018-04-17T08:20:30.447Z,8.13
2018-04-17T08:22:58.134Z,7.53
2018-04-17T08:25:25.750Z,7.07
2018-04-17T08:27:53.390Z,6.57
2018-04-17T08:30:21.121Z,6.00
2018-04-17T08:32:48.764Z,5.67
2018-04-17T08:35:16.371Z,5.43
2018-04-17T08:37:44.109Z,5.40
2018-04-17T08:40:11.771Z,5.20
2018-04-17T08:42:39.408Z,6.37
2018-04-17T08:45:07.086Z,7.40
2018-04-17T08:47:34.723Z,8.20
2018-04-17T08:50:02.335Z,7.00
2018-04-17T08:52:29.972Z,6.47
2018-04-17T08:54:57.638Z,6.83
2018-04-17T08:57:25.300Z,5.80
2018-04-17T08:59:52.906Z,4.17
2018-04-17T09:02:20.631Z,5.63
2018-04-17T09:04:48.234Z,5.97
2018-04-17T09:07:15.862Z,3.90
2018-04-17T09:09:43.469Z,6.30
2018-04-17T09:12:11.094Z,4.80
2018-04-17T09:14:38.698Z,5.40
2018-04-17T09:17:06.419Z,4.93
2018-04-17T09:19:34.030Z,4.97
2018-04-17T09:22:01.721Z,4.50
2018-04-17T09:24:29.394Z,4.47
2018-04-17T09:26:57.023Z,4.50
2018-04-17T09:29:24.639Z,4.63
2018-04-17T09:31:52.371Z,5.37
2018-04-17T09:34:19.991Z,5.30
2018-04-17T09:36:47.627Z,3.90
2018-04-17T09:39:15.244Z,4.40
2018-04-17T09:41:42.874Z,3.80
2018-04-17T09:44:10.488Z,4.30
2018-04-17T09:46:38.096Z,3.47
2018-04-17T09:49:05.722Z,3.03
2018-04-17T09:51:33.327Z,3.53
2018-04-17T09:54:00.962Z,4.77
2018-04-17T09:56:28.566Z,3.90
2018-04-17T09:58:56.203Z,3.80
2018-04-17T10:01:23.812Z,4.40
2018-04-17T10:03:51.487Z,4.43
2018-04-17T10:06:19.123Z,3.47
2018-04-17T10:08:46.798Z,4.33
2018-04-17T10:11:14.394Z,4.13
2018-04-17T10:13:42.023Z,4.20
2018-04-17T10:16:09.788Z,3.90
2018-04-17T10:18:37.422Z,4.60
2018-04-17T10:21:05.113Z,5.20
2018-04-17T10:23:33.329Z,4.03
2018-04-17T10:26:00.966Z,4.23
2018-04-17T10:28:28.718Z,4.63
2018-04-17T10:30:56.322Z,4.97
2018-04-17T10:33:23.946Z,4.97
2018-04-17T10:35:51.601Z,5.00
2018-04-17T10:38:19.246Z,5.30
2018-04-17T10:40:46.926Z,4.37
2018-04-17T10:43:14.558Z,4.23
2018-04-17T10:45:42.534Z,4.13
2018-04-17T10:48:10.225Z,3.80
2018-04-17T10:50:37.830Z,3.30
2018-04-17T10:53:05.462Z,4.20
2018-04-17T10:55:33.114Z,4.43
2018-04-17T10:58:00.742Z,3.80
2018-04-17T11:00:28.350Z,4.90
2018-04-17T11:02:55.999Z,4.63
2018-04-17T11:05:23.667Z,5.17
2018-04-17T11:07:51.298Z,4.73
2018-04-17T11:10:18.913Z,4.97
2018-04-17T11:12:46.642Z,5.17
2018-04-17T11:15:14.246Z,4.57
2018-04-17T11:17:42.033Z,4.37
2018-04-17T11:20:09.645Z,4.70
2018-04-17T11:22:37.298Z,4.13
2018-04-17T11:25:04.956Z,5.00
2018-04-17T11:27:32.621Z,4.70
2018-04-17T11:30:00.250Z,4.80
2018-04-17T11:32:27.945Z,4.47
2018-04-17T11:34:55.619Z,4.50
2018-04-17T11:37:23.223Z,3.97
2018-04-17T11:39:50.846Z,4.33
2018-04-17T11:42:18.459Z,4.30
2018-04-17T11:44:46.099Z,4.27
2018-04-17T11:47:13.718Z,4.30
2018-04-17T11:49:41.377Z,4.67
2018-04-17T11:52:08.991Z,4.20
2018-04-17T11:54:36.708Z,4.00
2018-04-17T11:57:04.310Z,4.23
2018-04-17T11:59:31.942Z,4.37
2018-04-17T12:01:59.555Z,4.77
2018-04-17T12:04:27.262Z,4.63
2018-04-17T12:06:54.876Z,4.23
2018-04-17T12:09:22.580Z,4.90
2018-04-17T12:11:50.242Z,4.73
2018-04-17T12:14:17.902Z,4.50
2018-04-17T12:16:45.520Z,4.53
2018-04-17T12:19:13.155Z,5.33
2018-04-17T12:21:40.791Z,4.70
2018-04-17T12:24:08.427Z,4.10
2018-04-17T12:26:36.123Z,4.60
2018-04-17T12:29:03.765Z,5.00
2018-04-17T12:31:31.438Z,5.30
2018-04-17T12:33:59.067Z,5.20
2018-04-17T12:36:26.675Z,4.50
2018-04-17T12:38:54.309Z,5.07
2018-04-17T12:41:21.985Z,5.57
2018-04-17T12:43:49.950Z,5.33
2018-04-17T12:46:17.606Z,5.00
2018-04-17T12:48:45.243Z,4.40
2018-04-17T12:51:12.854Z,4.53
2018-04-17T12:53:40.812Z,4.77
2018-04-17T12:56:08.574Z,4.50
2018-04-17T12:58:36.585Z,5.60
2018-04-17T13:01:04.209Z,4.80
2018-04-17T13:03:31.846Z,4.00
2018-04-17T13:06:00.035Z,4.87
2018-04-17T13:08:27.652Z,4.93
2018-04-17T13:10:55.370Z,5.40
2018-04-17T13:13:23.042Z,4.93
2018-04-17T13:15:50.670Z,5.57
2018-04-17T13:18:18.275Z,4.97
2018-04-17T13:20:45.922Z,6.90
2018-04-17T13:23:13.530Z,4.90
2018-04-17T13:25:41.167Z,6.03
2018-04-17T13:28:08.816Z,5.20
2018-04-17T13:30:36.571Z,6.00
2018-04-17T13:33:04.241Z,5.73
2018-04-17T13:35:31.883Z,5.87
2018-04-17T13:37:59.504Z,6.00
2018-04-17T13:40:27.233Z,4.00
2018-04-17T13:42:54.847Z,5.50
2018-04-17T13:45:22.478Z,5.37
2018-04-17T13:47:50.134Z,5.03
2018-04-17T13:50:17.749Z,6.00
2018-04-17T13:52:45.443Z,4.77
2018-04-17T13:55:13.070Z,5.30
2018-04-17T13:57:40.758Z,7.83
2018-04-17T14:00:08.427Z,5.40
2018-04-17T14:02:36.187Z,5.53
2018-04-17T14:05:03.821Z,4.97
2018-04-17T14:07:31.510Z,5.50
2018-04-17T14:09:59.138Z,5.47
2018-04-17T14:12:26.936Z,4.97
2018-04-17T14:14:54.566Z,4.50
2018-04-17T14:17:22.195Z,5.23
2018-04-17T14:19:49.832Z,5.40
2018-04-17T14:22:17.434Z,4.97
2018-04-17T14:24:45.069Z,5.90
2018-04-17T14:27:12.710Z,5.00
2018-04-17T14:29:40.370Z,5.67
2018-04-17T14:32:07.974Z,5.97
2018-04-17T14:34:35.601Z,4.93
2018-04-17T14:37:03.205Z,5.40
2018-04-17T14:39:30.834Z,5.87
2018-04-17T14:41:58.438Z,5.27
2018-04-17T14:44:26.075Z,4.40
2018-04-17T14:46:53.688Z,4.77
2018-04-17T14:49:21.366Z,5.03
2018-04-17T14:51:49.030Z,4.97
2018-04-17T14:54:16.700Z,3.53
2018-04-17T14:56:44.354Z,4.90
2018-04-17T14:59:11.972Z,5.07
2018-04-17T15:01:39.601Z,5.30
2018-04-17T15:04:07.206Z,5.53
2018-04-17T15:06:34.902Z,4.43
2018-04-17T15:09:02.511Z,4.73
2018-04-17T15:11:30.142Z,4.60
2018-04-17T15:13:57.796Z,4.00
2018-04-17T15:16:25.431Z,4.90
2018-04-17T15:18:53.114Z,4.50
2018-04-17T15:21:20.774Z,5.07
2018-04-17T15:23:48.438Z,4.43
2018-04-17T15:26:16.065Z,4.67
2018-04-17T15:28:43.670Z,4.40
2018-04-17T15:31:11.320Z,4.20
2018-04-17T15:33:38.995Z,4.83
2018-04-17T15:36:06.666Z,4.50
2018-04-17T15:38:34.278Z,4.90
2018-04-17T15:41:01.907Z,5.03
2018-04-17T15:43:29.523Z,5.20
2018-04-17T15:45:57.166Z,4.30
2018-04-17T15:48:24.781Z,4.37
2018-04-17T15:50:52.422Z,5.10
2018-04-17T15:53:20.031Z,5.07
2018-04-17T15:55:47.658Z,5.10
2018-04-17T15:58:15.270Z,4.87
2018-04-17T16:00:42.899Z,5.00
2018-04-17T16:03:10.538Z,5.53
2018-04-17T16:05:38.191Z,5.00
2018-04-17T16:08:05.798Z,4.40
2018-04-17T16:10:33.431Z,4.27
2018-04-17T16:13:01.076Z,4.17
2018-04-17T16:15:28.719Z,4.53
2018-04-17T16:17:56.411Z,4.37
2018-04-17T16:20:24.070Z,4.10
2018-04-17T16:22:51.674Z,3.90
2018-04-17T16:25:19.302Z,4.47
2018-04-17T16:27:46.911Z,4.70
2018-04-17T16:30:14.520Z,5.40
2018-04-17T16:32:42.159Z,5.10
2018-04-17T16:35:09.765Z,5.57
2018-04-17T16:37:37.399Z,4.30
2018-04-17T16:40:05.069Z,4.10
2018-04-17T16:42:32.753Z,4.70
2018-04-17T16:45:00.354Z,5.80
2018-04-17T16:47:27.991Z,5.30
2018-04-17T16:49:55.599Z,5.03
2018-04-17T16:52:23.243Z,6.77
2018-04-17T16:54:50.871Z,6.10
2018-04-17T16:57:18.507Z,7.20
2018-04-17T16:59:46.115Z,7.00
2018-04-17T17:02:13.745Z,7.13
2018-04-17T17:04:41.392Z,7.53
2018-04-17T17:07:09.042Z,6.70
2018-04-17T17:09:36.807Z,8.37
2018-04-17T17:12:04.672Z,8.77
2018-04-17T17:14:32.273Z,8.80
2018-04-17T17:16:59.909Z,8.00
2018-04-17T17:19:27.568Z,9.00
2018-04-17T17:21:55.226Z,9.50
2018-04-17T17:24:22.886Z,9.57
2018-04-17T17:26:50.609Z,8.70
2018-04-17T17:29:18.282Z,8.60
2018-04-17T17:31:45.915Z,7.93
2018-04-17T17:34:13.690Z,8.53
2018-04-17T17:36:41.334Z,9.47
2018-04-17T17:39:08.971Z,9.30
2018-04-17T17:41:36.607Z,8.90
2018-04-17T17:44:04.287Z,10.70
2018-04-17T17:46:31.947Z,10.63
2018-04-17T17:48:59.558Z,11.37
2018-04-17T17:51:27.203Z,10.97
2018-04-17T17:53:54.827Z,10.27
2018-04-17T17:56:22.471Z,10.93
2018-04-17T17:58:50.803Z,12.07
2018-04-17T18:01:18.443Z,11.27
2018-04-17T18:03:46.067Z,10.03
2018-04-17T18:06:13.694Z,9.77
2018-04-17T18:08:41.337Z,11.00
2018-04-17T18:11:09.027Z,11.50
2018-04-17T18:13:36.658Z,10.50
2018-04-17T18:16:04.271Z,12.10
2018-04-17T18:18:31.983Z,12.63
2018-04-17T18:20:59.635Z,13.80
2018-04-17T18:23:27.279Z,11.10
2018-04-17T18:25:55.507Z,13.10
2018-04-17T18:28:23.242Z,13.27
2018-04-17T18:30:50.883Z,13.57
2018-04-17T18:33:18.565Z,12.23
2018-04-17T18:35:46.203Z,11.47
2018-04-17T18:38:13.902Z,10.93
2018-04-17T18:40:41.514Z,10.53
2018-04-17T18:43:09.143Z,9.37
2018-04-17T18:45:36.763Z,10.60
2018-04-17T18:48:04.378Z,13.10
2018-04-17T18:50:32.198Z,11.20
2018-04-17T18:52:59.806Z,14.13
2018-04-17T18:55:27.521Z,11.90
2018-04-17T18:57:55.136Z,10.90
2018-04-17T19:00:22.896Z,10.33
2018-04-17T19:02:50.510Z,11.33
2018-04-17T19:05:18.173Z,11.80
2018-04-17T19:07:45.796Z,11.77
2018-04-17T19:10:13.502Z,10.93
2018-04-17T19:12:41.123Z,11.30
2018-04-17T19:15:08.836Z,10.03
2018-04-17T19:17:36.491Z,9.83
2018-04-17T19:20:04.155Z,11.20
2018-04-17T19:22:31.776Z,10.27
2018-04-17T19:24:59.406Z,11.10
2018-04-17T19:27:27.038Z,10.20
2018-04-17T19:29:54.702Z,11.27
2018-04-17T19:32:22.309Z,13.07
2018-04-17T19:34:50.023Z,11.40
2018-04-17T19:37:17.647Z,10.47
2018-04-17T19:39:45.292Z,10.60
2018-04-17T19:42:12.923Z,10.43
2018-04-17T19:44:40.574Z,8.73
2018-04-17T19:47:08.200Z,10.47
2018-04-17T19:49:35.829Z,9.40
2018-04-17T19:52:03.468Z,10.50
2018-04-17T19:54:31.119Z,8.57
2018-04-17T19:56:58.781Z,8.97
2018-04-17T19:59:26.398Z,10.80
2018-04-17T20:01:54.738Z,10.70
2018-04-17T20:04:22.392Z,10.30
2018-04-17T20:06:50.040Z,12.00
2018-04-17T20:09:17.709Z,10.23
2018-04-17T20:11:45.332Z,10.13
2018-04-17T20:14:12.938Z,8.80
2018-04-17T20:16:40.569Z,9.43
2018-04-17T20:19:08.175Z,10.77
2018-04-17T20:21:35.811Z,10.80
2018-04-17T20:24:03.580Z,10.40
2018-04-17T20:26:31.345Z,10.87
2018-04-17T20:28:58.987Z,11.47
2018-04-17T20:31:26.679Z,11.00
2018-04-17T20:33:54.295Z,10.30
2018-04-17T20:36:21.935Z,9.77
2018-04-17T20:38:49.814Z,9.90
2018-04-17T20:41:17.534Z,9.20
2018-04-17T20:43:45.148Z,9.63
2018-04-17T20:46:12.786Z,10.50
2018-04-17T20:48:40.398Z,10.70
2018-04-17T20:51:08.031Z,8.83
2018-04-17T20:53:36.391Z,9.87
2018-04-17T20:56:04.042Z,10.27
2018-04-17T20:58:31.650Z,10.67
2018-04-17T21:00:59.348Z,9.47
2018-04-17T21:03:26.978Z,9.07
2018-04-17T21:05:54.592Z,11.33
2018-04-17T21:08:22.224Z,9.00
2018-04-17T21:10:49.835Z,11.37
2018-04-17T21:13:17.484Z,11.93
2018-04-17T21:15:45.110Z,11.60
2018-04-17T21:18:12.789Z,10.10
2018-04-17T21:20:40.445Z,12.20
2018-04-17T21:23:08.073Z,14.40
2018-04-17T21:25:35.699Z,12.47
2018-04-17T21:28:03.425Z,12.80
2018-04-17T21:30:31.116Z,12.23
2018-04-17T21:32:58.746Z,10.40
2018-04-17T21:35:26.364Z,11.10
2018-04-17T21:37:54.002Z,11.70
2018-04-17T21:40:21.637Z,11.57
2018-04-17T21:42:49.406Z,10.80
2018-04-17T21:45:17.020Z,11.00
2018-04-17T21:47:44.735Z,7.87
2018-04-17T21:50:12.390Z,11.20
2018-04-17T21:52:40.048Z,9.17
2018-04-17T21:55:07.663Z,10.43
2018-04-17T21:57:35.416Z,10.57
2018-04-17T22:00:03.153Z,10.93
2018-04-17T22:02:30.806Z,9.40
2018-04-17T22:04:58.443Z,9.57
2018-04-17T22:07:26.058Z,10.53
2018-04-17T22:09:53.695Z,10.50
2018-04-17T22:12:21.316Z,10.70
2018-04-17T22:14:48.946Z,8.47
2018-04-17T22:17:16.575Z,10.90
2018-04-17T22:19:44.210Z,9.90
2018-04-17T22:22:11.836Z,9.90
2018-04-17T22:24:39.480Z,11.13
2018-04-17T22:27:07.121Z,11.07
2018-04-17T22:29:34.792Z,10.17
2018-04-17T22:32:02.416Z,10.77
2018-04-17T22:34:30.110Z,10.70
2018-04-17T22:36:57.731Z,9.70
2018-04-17T22:39:25.358Z,9.93
2018-04-17T22:41:52.962Z,9.93
2018-04-17T22:44:20.594Z,9.57
2018-04-17T22:46:48.198Z,9.63
2018-04-17T22:49:15.822Z,8.50
2018-04-17T22:51:43.436Z,10.40
2018-04-17T22:54:11.071Z,10.23
2018-04-17T22:56:38.691Z,10.73
2018-04-17T22:59:06.346Z,11.80
2018-04-17T23:01:34.000Z,10.70
2018-04-17T23:04:01.614Z,11.07
2018-04-17T23:06:29.255Z,11.63
2018-04-17T23:08:56.987Z,12.63
2018-04-17T23:11:24.633Z,11.47
2018-04-17T23:13:52.242Z,9.90
2018-04-17T23:16:19.875Z,11.63
2018-04-17T23:18:47.487Z,12.80
2018-04-17T23:21:15.199Z,11.27
2018-04-17T23:23:42.820Z,12.47
2018-04-17T23:26:10.514Z,10.80
2018-04-17T23:28:38.178Z,9.73
2018-04-17T23:31:05.814Z,10.90
2018-04-17T23:33:33.501Z,10.07
2018-04-17T23:36:01.130Z,10.63
2018-04-17T23:38:28.743Z,11.13
2018-04-17T23:40:56.369Z,9.90
2018-04-17T23:43:23.979Z,10.37
2018-04-17T23:45:51.614Z,10.20
2018-04-17T23:48:19.266Z,10.80
2018-04-17T23:50:46.890Z,9.13
2018-04-17T23:53:14.605Z,9.30
2018-04-17T23:55:42.262Z,10.57
2018-04-17T23:58:09.877Z,11.57
